sensor_id;sensor_type;location;lat;lon;timestamp;P1;durP1;ratioP1;P2;durP2;ratioP2
39772;SDS011;25451;51.960;6.250;2022-11-20T00:01:40;14.93;;;5.77;;
39772;SDS011;25451;51.960;6.250;2022-11-20T00:04:05;11.77;;;5.30;;
39772;SDS011;25451;51.960;6.250;2022-11-20T00:06:31;13.43;;;5.43;;
39772;SDS011;25451;51.960;6.250;2022-11-20T00:08:57;12.20;;;5.90;;
39772;SDS011;25451;51.960;6.250;2022-11-20T00:11:25;13.98;;;5.43;;
39772;SDS011;25451;51.960;6.250;2022-11-20T00:13:52;11.35;;;5.38;;
39772;SDS011;25451;51.960;6.250;2022-11-20T00:16:20;9.98;;;5.40;;
39772;SDS011;25451;51.960;6.250;2022-11-20T00:18:47;10.87;;;5.97;;
39772;SDS011;25451;51.960;6.250;2022-11-20T00:21:13;10.05;;;5.22;;
39772;SDS011;25451;51.960;6.250;2022-11-20T00:23:43;9.27;;;4.68;;
39772;SDS011;25451;51.960;6.250;2022-11-20T00:26:10;10.90;;;4.60;;
39772;SDS011;25451;51.960;6.250;2022-11-20T00:28:42;9.05;;;4.78;;
39772;SDS011;25451;51.960;6.250;2022-11-20T00:31:15;9.52;;;4.70;;
39772;SDS011;25451;51.960;6.250;2022-11-20T00:33:42;10.90;;;5.22;;
39772;SDS011;25451;51.960;6.250;2022-11-20T00:36:13;10.90;;;5.00;;
39772;SDS011;25451;51.960;6.250;2022-11-20T00:38:40;9.87;;;5.00;;
39772;SDS011;25451;51.960;6.250;2022-11-20T00:41:10;13.35;;;5.35;;
39772;SDS011;25451;51.960;6.250;2022-11-20T00:43:36;10.55;;;4.80;;
39772;SDS011;25451;51.960;6.250;2022-11-20T00:48:28;10.13;;;5.38;;
39772;SDS011;25451;51.960;6.250;2022-11-20T00:50:53;11.45;;;5.00;;
39772;SDS011;25451;51.960;6.250;2022-11-20T00:53:19;10.82;;;5.28;;
39772;SDS011;25451;51.960;6.250;2022-11-20T00:55:52;9.77;;;4.67;;
39772;SDS011;25451;51.960;6.250;2022-11-20T00:58:32;10.02;;;4.35;;
39772;SDS011;25451;51.960;6.250;2022-11-20T01:01:07;11.55;;;4.90;;
39772;SDS011;25451;51.960;6.250;2022-11-20T01:03:36;11.50;;;5.28;;
39772;SDS011;25451;51.960;6.250;2022-11-20T01:06:07;10.73;;;5.22;;
39772;SDS011;25451;51.960;6.250;2022-11-20T01:08:36;9.80;;;4.90;;
39772;SDS011;25451;51.960;6.250;2022-11-20T01:11:03;10.40;;;4.85;;
39772;SDS011;25451;51.960;6.250;2022-11-20T01:13:31;9.52;;;4.82;;
39772;SDS011;25451;51.960;6.250;2022-11-20T01:16:05;10.80;;;4.85;;
39772;SDS011;25451;51.960;6.250;2022-11-20T01:18:31;13.27;;;4.68;;
39772;SDS011;25451;51.960;6.250;2022-11-20T01:21:07;9.50;;;4.30;;
39772;SDS011;25451;51.960;6.250;2022-11-20T01:23:34;9.43;;;4.47;;
39772;SDS011;25451;51.960;6.250;2022-11-20T01:26:02;11.80;;;4.53;;
39772;SDS011;25451;51.960;6.250;2022-11-20T01:28:31;11.80;;;4.85;;
39772;SDS011;25451;51.960;6.250;2022-11-20T01:30:57;10.15;;;4.55;;
39772;SDS011;25451;51.960;6.250;2022-11-20T01:33:23;10.77;;;4.93;;
39772;SDS011;25451;51.960;6.250;2022-11-20T01:35:48;9.90;;;4.88;;
39772;SDS011;25451;51.960;6.250;2022-11-20T01:38:17;11.77;;;4.70;;
39772;SDS011;25451;51.960;6.250;2022-11-20T01:40:42;9.90;;;4.50;;
39772;SDS011;25451;51.960;6.250;2022-11-20T01:43:16;10.98;;;4.78;;
39772;SDS011;25451;51.960;6.250;2022-11-20T01:48:42;9.80;;;4.55;;
39772;SDS011;25451;51.960;6.250;2022-11-20T01:51:58;8.90;;;4.72;;
39772;SDS011;25451;51.960;6.250;2022-11-20T01:54:00;10.13;;;4.63;;
39772;SDS011;25451;51.960;6.250;2022-11-20T01:56:29;12.13;;;4.97;;
39772;SDS011;25451;51.960;6.250;2022-11-20T01:58:58;9.70;;;4.83;;
39772;SDS011;25451;51.960;6.250;2022-11-20T02:01:26;10.48;;;4.45;;
39772;SDS011;25451;51.960;6.250;2022-11-20T02:03:52;10.38;;;4.95;;
39772;SDS011;25451;51.960;6.250;2022-11-20T02:06:25;10.88;;;4.60;;
39772;SDS011;25451;51.960;6.250;2022-11-20T02:08:53;11.15;;;4.45;;
39772;SDS011;25451;51.960;6.250;2022-11-20T02:11:20;10.10;;;5.03;;
39772;SDS011;25451;51.960;6.250;2022-11-20T02:13:46;8.90;;;4.25;;
39772;SDS011;25451;51.960;6.250;2022-11-20T02:16:16;10.18;;;4.60;;
39772;SDS011;25451;51.960;6.250;2022-11-20T02:18:51;9.63;;;4.88;;
39772;SDS011;25451;51.960;6.250;2022-11-20T02:24:12;11.15;;;4.82;;
39772;SDS011;25451;51.960;6.250;2022-11-20T02:26:45;10.68;;;4.80;;
39772;SDS011;25451;51.960;6.250;2022-11-20T02:29:16;11.13;;;5.03;;
39772;SDS011;25451;51.960;6.250;2022-11-20T02:31:48;10.93;;;4.85;;
39772;SDS011;25451;51.960;6.250;2022-11-20T02:34:13;10.60;;;4.70;;
39772;SDS011;25451;51.960;6.250;2022-11-20T02:36:39;11.50;;;5.20;;
39772;SDS011;25451;51.960;6.250;2022-11-20T02:39:07;11.20;;;4.97;;
39772;SDS011;25451;51.960;6.250;2022-11-20T02:41:34;10.37;;;4.93;;
39772;SDS011;25451;51.960;6.250;2022-11-20T02:44:02;10.55;;;4.53;;
39772;SDS011;25451;51.960;6.250;2022-11-20T02:46:28;8.90;;;4.75;;
39772;SDS011;25451;51.960;6.250;2022-11-20T02:48:54;13.10;;;4.57;;
39772;SDS011;25451;51.960;6.250;2022-11-20T02:51:19;8.70;;;4.17;;
39772;SDS011;25451;51.960;6.250;2022-11-20T02:53:45;9.73;;;4.30;;
39772;SDS011;25451;51.960;6.250;2022-11-20T02:56:10;11.33;;;5.10;;
39772;SDS011;25451;51.960;6.250;2022-11-20T02:58:35;10.20;;;4.27;;
39772;SDS011;25451;51.960;6.250;2022-11-20T03:01:01;9.90;;;4.67;;
39772;SDS011;25451;51.960;6.250;2022-11-20T03:03:26;9.33;;;4.33;;
39772;SDS011;25451;51.960;6.250;2022-11-20T03:05:51;10.67;;;4.83;;
39772;SDS011;25451;51.960;6.250;2022-11-20T03:08:16;8.77;;;4.30;;
39772;SDS011;25451;51.960;6.250;2022-11-20T03:10:42;8.30;;;4.30;;
39772;SDS011;25451;51.960;6.250;2022-11-20T03:13:07;10.80;;;4.93;;
39772;SDS011;25451;51.960;6.250;2022-11-20T03:15:32;9.35;;;4.25;;
39772;SDS011;25451;51.960;6.250;2022-11-20T03:17:58;8.85;;;4.25;;
39772;SDS011;25451;51.960;6.250;2022-11-20T03:20:23;10.73;;;4.73;;
39772;SDS011;25451;51.960;6.250;2022-11-20T03:22:48;11.07;;;4.57;;
39772;SDS011;25451;51.960;6.250;2022-11-20T03:25:13;9.97;;;4.70;;
39772;SDS011;25451;51.960;6.250;2022-11-20T03:27:39;11.00;;;4.83;;
39772;SDS011;25451;51.960;6.250;2022-11-20T03:30:04;10.07;;;4.73;;
39772;SDS011;25451;51.960;6.250;2022-11-20T03:32:30;10.60;;;4.38;;
39772;SDS011;25451;51.960;6.250;2022-11-20T03:34:56;12.63;;;5.17;;
39772;SDS011;25451;51.960;6.250;2022-11-20T03:37:21;10.47;;;4.77;;
39772;SDS011;25451;51.960;6.250;2022-11-20T03:39:46;10.17;;;4.90;;
39772;SDS011;25451;51.960;6.250;2022-11-20T03:42:11;12.57;;;5.43;;
39772;SDS011;25451;51.960;6.250;2022-11-20T03:44:55;8.20;;;4.40;;
39772;SDS011;25451;51.960;6.250;2022-11-20T03:47:21;12.97;;;5.17;;
39772;SDS011;25451;51.960;6.250;2022-11-20T03:49:46;7.60;;;4.23;;
39772;SDS011;25451;51.960;6.250;2022-11-20T03:52:11;10.97;;;5.03;;
39772;SDS011;25451;51.960;6.250;2022-11-20T03:54:36;9.83;;;4.30;;
39772;SDS011;25451;51.960;6.250;2022-11-20T03:57:02;11.37;;;4.60;;
39772;SDS011;25451;51.960;6.250;2022-11-20T03:59:27;9.57;;;4.47;;
39772;SDS011;25451;51.960;6.250;2022-11-20T04:01:52;12.03;;;4.67;;
39772;SDS011;25451;51.960;6.250;2022-11-20T04:04:18;9.60;;;4.40;;
39772;SDS011;25451;51.960;6.250;2022-11-20T04:06:43;11.05;;;4.43;;
39772;SDS011;25451;51.960;6.250;2022-11-20T04:09:08;9.97;;;4.30;;
39772;SDS011;25451;51.960;6.250;2022-11-20T04:11:35;10.30;;;4.63;;
39772;SDS011;25451;51.960;6.250;2022-11-20T04:14:03;12.00;;;4.93;;
39772;SDS011;25451;51.960;6.250;2022-11-20T04:16:32;9.13;;;4.18;;
39772;SDS011;25451;51.960;6.250;2022-11-20T04:19:00;8.80;;;4.10;;
39772;SDS011;25451;51.960;6.250;2022-11-20T04:21:27;9.45;;;4.25;;
39772;SDS011;25451;51.960;6.250;2022-11-20T04:23:52;11.13;;;4.43;;
39772;SDS011;25451;51.960;6.250;2022-11-20T04:26:18;9.80;;;4.40;;
39772;SDS011;25451;51.960;6.250;2022-11-20T04:28:44;9.88;;;4.60;;
39772;SDS011;25451;51.960;6.250;2022-11-20T04:33:36;8.63;;;4.27;;
39772;SDS011;25451;51.960;6.250;2022-11-20T04:36:06;9.60;;;4.63;;
39772;SDS011;25451;51.960;6.250;2022-11-20T04:38:35;8.60;;;4.07;;
39772;SDS011;25451;51.960;6.250;2022-11-20T04:41:01;9.00;;;4.47;;
39772;SDS011;25451;51.960;6.250;2022-11-20T04:43:28;9.17;;;4.43;;
39772;SDS011;25451;51.960;6.250;2022-11-20T04:45:53;9.88;;;4.50;;
39772;SDS011;25451;51.960;6.250;2022-11-20T04:48:20;10.38;;;4.47;;
39772;SDS011;25451;51.960;6.250;2022-11-20T04:50:45;10.23;;;4.53;;
39772;SDS011;25451;51.960;6.250;2022-11-20T04:53:11;10.40;;;4.50;;
39772;SDS011;25451;51.960;6.250;2022-11-20T04:55:36;8.17;;;4.23;;
39772;SDS011;25451;51.960;6.250;2022-11-20T04:58:02;7.43;;;4.50;;
39772;SDS011;25451;51.960;6.250;2022-11-20T05:00:27;9.20;;;4.37;;
39772;SDS011;25451;51.960;6.250;2022-11-20T05:02:53;9.53;;;4.23;;
39772;SDS011;25451;51.960;6.250;2022-11-20T05:05:18;8.93;;;4.22;;
39772;SDS011;25451;51.960;6.250;2022-11-20T05:07:43;8.87;;;4.17;;
39772;SDS011;25451;51.960;6.250;2022-11-20T05:10:09;9.20;;;4.33;;
39772;SDS011;25451;51.960;6.250;2022-11-20T05:12:34;8.87;;;4.47;;
39772;SDS011;25451;51.960;6.250;2022-11-20T05:14:59;10.50;;;4.23;;
39772;SDS011;25451;51.960;6.250;2022-11-20T05:17:24;11.10;;;4.97;;
39772;SDS011;25451;51.960;6.250;2022-11-20T05:19:50;10.57;;;4.60;;
39772;SDS011;25451;51.960;6.250;2022-11-20T05:22:15;13.47;;;5.23;;
39772;SDS011;25451;51.960;6.250;2022-11-20T05:24:40;8.47;;;4.00;;
39772;SDS011;25451;51.960;6.250;2022-11-20T05:27:06;9.67;;;4.60;;
39772;SDS011;25451;51.960;6.250;2022-11-20T05:29:31;8.03;;;4.27;;
39772;SDS011;25451;51.960;6.250;2022-11-20T05:31:56;10.37;;;4.57;;
39772;SDS011;25451;51.960;6.250;2022-11-20T05:34:22;7.93;;;3.97;;
39772;SDS011;25451;51.960;6.250;2022-11-20T05:36:47;9.13;;;4.07;;
39772;SDS011;25451;51.960;6.250;2022-11-20T05:39:12;9.50;;;4.45;;
39772;SDS011;25451;51.960;6.250;2022-11-20T05:41:37;9.00;;;4.10;;
39772;SDS011;25451;51.960;6.250;2022-11-20T05:44:03;7.22;;;3.83;;
39772;SDS011;25451;51.960;6.250;2022-11-20T05:46:28;10.10;;;4.90;;
39772;SDS011;25451;51.960;6.250;2022-11-20T05:48:54;10.17;;;4.80;;
39772;SDS011;25451;51.960;6.250;2022-11-20T05:51:19;9.10;;;4.10;;
39772;SDS011;25451;51.960;6.250;2022-11-20T05:53:45;10.40;;;5.03;;
39772;SDS011;25451;51.960;6.250;2022-11-20T05:56:12;8.48;;;3.85;;
39772;SDS011;25451;51.960;6.250;2022-11-20T05:58:39;8.70;;;4.70;;
39772;SDS011;25451;51.960;6.250;2022-11-20T06:01:09;9.15;;;4.18;;
39772;SDS011;25451;51.960;6.250;2022-11-20T06:03:39;7.78;;;4.55;;
39772;SDS011;25451;51.960;6.250;2022-11-20T06:06:07;8.27;;;4.27;;
39772;SDS011;25451;51.960;6.250;2022-11-20T06:08:33;8.10;;;3.97;;
39772;SDS011;25451;51.960;6.250;2022-11-20T06:11:02;10.40;;;4.55;;
39772;SDS011;25451;51.960;6.250;2022-11-20T06:13:29;8.73;;;3.72;;
39772;SDS011;25451;51.960;6.250;2022-11-20T06:15:54;7.83;;;4.10;;
39772;SDS011;25451;51.960;6.250;2022-11-20T06:18:20;7.90;;;4.30;;
39772;SDS011;25451;51.960;6.250;2022-11-20T06:20:45;8.07;;;3.93;;
39772;SDS011;25451;51.960;6.250;2022-11-20T06:23:11;10.20;;;5.05;;
39772;SDS011;25451;51.960;6.250;2022-11-20T06:25:40;8.87;;;4.50;;
39772;SDS011;25451;51.960;6.250;2022-11-20T06:28:07;8.23;;;3.72;;
39772;SDS011;25451;51.960;6.250;2022-11-20T06:30:32;8.80;;;4.45;;
39772;SDS011;25451;51.960;6.250;2022-11-20T06:32:58;9.23;;;4.57;;
39772;SDS011;25451;51.960;6.250;2022-11-20T06:35:23;7.77;;;4.13;;
39772;SDS011;25451;51.960;6.250;2022-11-20T06:37:48;9.67;;;5.03;;
39772;SDS011;25451;51.960;6.250;2022-11-20T06:40:14;11.20;;;5.10;;
39772;SDS011;25451;51.960;6.250;2022-11-20T06:42:39;11.77;;;5.30;;
39772;SDS011;25451;51.960;6.250;2022-11-20T06:45:04;11.07;;;5.00;;
39772;SDS011;25451;51.960;6.250;2022-11-20T06:47:30;9.80;;;4.85;;
39772;SDS011;25451;51.960;6.250;2022-11-20T06:49:55;9.77;;;5.07;;
39772;SDS011;25451;51.960;6.250;2022-11-20T06:52:21;11.53;;;5.03;;
39772;SDS011;25451;51.960;6.250;2022-11-20T06:54:46;9.17;;;4.87;;
39772;SDS011;25451;51.960;6.250;2022-11-20T06:57:11;10.67;;;5.10;;
39772;SDS011;25451;51.960;6.250;2022-11-20T06:59:37;10.40;;;5.57;;
39772;SDS011;25451;51.960;6.250;2022-11-20T07:02:02;8.83;;;4.53;;
39772;SDS011;25451;51.960;6.250;2022-11-20T07:04:27;9.73;;;5.13;;
39772;SDS011;25451;51.960;6.250;2022-11-20T07:06:53;8.18;;;3.97;;
39772;SDS011;25451;51.960;6.250;2022-11-20T07:09:18;8.57;;;4.50;;
39772;SDS011;25451;51.960;6.250;2022-11-20T07:11:43;11.35;;;4.72;;
39772;SDS011;25451;51.960;6.250;2022-11-20T07:14:09;9.70;;;4.80;;
39772;SDS011;25451;51.960;6.250;2022-11-20T07:16:34;7.40;;;3.93;;
39772;SDS011;25451;51.960;6.250;2022-11-20T07:18:59;8.80;;;4.37;;
39772;SDS011;25451;51.960;6.250;2022-11-20T07:21:25;10.97;;;4.17;;
39772;SDS011;25451;51.960;6.250;2022-11-20T07:23:50;7.90;;;4.20;;
39772;SDS011;25451;51.960;6.250;2022-11-20T07:26:15;9.50;;;4.53;;
39772;SDS011;25451;51.960;6.250;2022-11-20T07:28:43;11.70;;;4.57;;
39772;SDS011;25451;51.960;6.250;2022-11-20T07:31:09;7.03;;;4.18;;
39772;SDS011;25451;51.960;6.250;2022-11-20T07:33:34;7.40;;;4.13;;
39772;SDS011;25451;51.960;6.250;2022-11-20T07:35:59;6.53;;;3.67;;
39772;SDS011;25451;51.960;6.250;2022-11-20T07:38:25;8.10;;;4.43;;
39772;SDS011;25451;51.960;6.250;2022-11-20T07:40:53;10.73;;;4.50;;
39772;SDS011;25451;51.960;6.250;2022-11-20T07:43:22;10.95;;;4.13;;
39772;SDS011;25451;51.960;6.250;2022-11-20T07:45:48;10.20;;;4.88;;
39772;SDS011;25451;51.960;6.250;2022-11-20T07:48:13;10.13;;;4.13;;
39772;SDS011;25451;51.960;6.250;2022-11-20T07:50:38;10.83;;;4.70;;
39772;SDS011;25451;51.960;6.250;2022-11-20T07:53:04;10.87;;;4.53;;
39772;SDS011;25451;51.960;6.250;2022-11-20T07:55:30;10.60;;;4.97;;
39772;SDS011;25451;51.960;6.250;2022-11-20T07:57:56;10.73;;;4.60;;
39772;SDS011;25451;51.960;6.250;2022-11-20T08:00:22;11.15;;;5.82;;
39772;SDS011;25451;51.960;6.250;2022-11-20T08:02:48;9.73;;;4.70;;
39772;SDS011;25451;51.960;6.250;2022-11-20T08:05:13;11.85;;;5.47;;
39772;SDS011;25451;51.960;6.250;2022-11-20T08:07:39;8.63;;;4.93;;
39772;SDS011;25451;51.960;6.250;2022-11-20T08:10:07;9.35;;;5.03;;
39772;SDS011;25451;51.960;6.250;2022-11-20T08:12:33;10.33;;;5.00;;
39772;SDS011;25451;51.960;6.250;2022-11-20T08:15:17;13.20;;;4.95;;
39772;SDS011;25451;51.960;6.250;2022-11-20T08:17:43;11.90;;;5.17;;
39772;SDS011;25451;51.960;6.250;2022-11-20T08:20:08;12.90;;;5.80;;
39772;SDS011;25451;51.960;6.250;2022-11-20T08:22:34;11.63;;;5.57;;
39772;SDS011;25451;51.960;6.250;2022-11-20T08:24:59;10.35;;;5.25;;
39772;SDS011;25451;51.960;6.250;2022-11-20T08:27:25;11.70;;;5.33;;
39772;SDS011;25451;51.960;6.250;2022-11-20T08:29:50;12.60;;;5.70;;
39772;SDS011;25451;51.960;6.250;2022-11-20T08:32:15;13.60;;;6.47;;
39772;SDS011;25451;51.960;6.250;2022-11-20T08:34:41;12.30;;;5.17;;
39772;SDS011;25451;51.960;6.250;2022-11-20T08:37:06;10.60;;;5.27;;
39772;SDS011;25451;51.960;6.250;2022-11-20T08:39:31;12.57;;;6.10;;
39772;SDS011;25451;51.960;6.250;2022-11-20T08:41:56;12.93;;;6.20;;
39772;SDS011;25451;51.960;6.250;2022-11-20T08:44:22;15.87;;;6.63;;
39772;SDS011;25451;51.960;6.250;2022-11-20T08:46:47;14.27;;;7.10;;
39772;SDS011;25451;51.960;6.250;2022-11-20T08:49:13;14.20;;;6.85;;
39772;SDS011;25451;51.960;6.250;2022-11-20T08:51:39;12.80;;;6.30;;
39772;SDS011;25451;51.960;6.250;2022-11-20T08:54:05;14.32;;;6.97;;
39772;SDS011;25451;51.960;6.250;2022-11-20T08:56:31;14.95;;;7.35;;
39772;SDS011;25451;51.960;6.250;2022-11-20T08:58:57;16.55;;;7.47;;
39772;SDS011;25451;51.960;6.250;2022-11-20T09:01:24;15.25;;;7.95;;
39772;SDS011;25451;51.960;6.250;2022-11-20T09:03:49;15.02;;;7.93;;
39772;SDS011;25451;51.960;6.250;2022-11-20T09:06:15;16.35;;;7.70;;
39772;SDS011;25451;51.960;6.250;2022-11-20T09:08:41;15.50;;;7.63;;
39772;SDS011;25451;51.960;6.250;2022-11-20T09:11:06;21.13;;;8.05;;
39772;SDS011;25451;51.960;6.250;2022-11-20T09:13:34;15.67;;;7.90;;
39772;SDS011;25451;51.960;6.250;2022-11-20T09:16:04;15.52;;;7.10;;
39772;SDS011;25451;51.960;6.250;2022-11-20T09:18:32;15.43;;;7.57;;
39772;SDS011;25451;51.960;6.250;2022-11-20T09:20:58;15.70;;;7.90;;
39772;SDS011;25451;51.960;6.250;2022-11-20T09:23:24;15.75;;;7.90;;
39772;SDS011;25451;51.960;6.250;2022-11-20T09:25:50;19.15;;;8.20;;
39772;SDS011;25451;51.960;6.250;2022-11-20T09:28:17;17.88;;;8.80;;
39772;SDS011;25451;51.960;6.250;2022-11-20T09:30:43;17.27;;;8.53;;
39772;SDS011;25451;51.960;6.250;2022-11-20T09:33:09;19.30;;;9.23;;
39772;SDS011;25451;51.960;6.250;2022-11-20T09:35:34;21.27;;;10.10;;
39772;SDS011;25451;51.960;6.250;2022-11-20T09:38:04;18.97;;;9.77;;
39772;SDS011;25451;51.960;6.250;2022-11-20T09:40:30;18.73;;;9.82;;
39772;SDS011;25451;51.960;6.250;2022-11-20T09:45:52;18.77;;;9.52;;
39772;SDS011;25451;51.960;6.250;2022-11-20T09:48:42;19.30;;;10.00;;
39772;SDS011;25451;51.960;6.250;2022-11-20T09:54:19;19.80;;;9.13;;
39772;SDS011;25451;51.960;6.250;2022-11-20T09:56:53;25.05;;;9.73;;
39772;SDS011;25451;51.960;6.250;2022-11-20T09:59:41;25.00;;;11.18;;
39772;SDS011;25451;51.960;6.250;2022-11-20T10:04:51;38.88;;;18.58;;
39772;SDS011;25451;51.960;6.250;2022-11-20T10:07:43;42.57;;;22.00;;
39772;SDS011;25451;51.960;6.250;2022-11-20T10:10:17;46.65;;;23.02;;
39772;SDS011;25451;51.960;6.250;2022-11-20T10:15:56;34.15;;;15.50;;
39772;SDS011;25451;51.960;6.250;2022-11-20T10:21:05;29.00;;;13.10;;
39772;SDS011;25451;51.960;6.250;2022-11-20T10:29:13;23.42;;;11.38;;
39772;SDS011;25451;51.960;6.250;2022-11-20T10:31:49;21.50;;;10.35;;
39772;SDS011;25451;51.960;6.250;2022-11-20T10:34:19;23.57;;;11.00;;
39772;SDS011;25451;51.960;6.250;2022-11-20T10:47:48;21.30;;;10.37;;
39772;SDS011;25451;51.960;6.250;2022-11-20T10:50:14;22.58;;;10.40;;
39772;SDS011;25451;51.960;6.250;2022-11-20T10:55:40;25.40;;;11.00;;
39772;SDS011;25451;51.960;6.250;2022-11-20T10:58:22;22.92;;;9.85;;
39772;SDS011;25451;51.960;6.250;2022-11-20T11:01:39;19.45;;;9.52;;
39772;SDS011;25451;51.960;6.250;2022-11-20T11:03:52;21.23;;;9.37;;
39772;SDS011;25451;51.960;6.250;2022-11-20T11:08:56;19.90;;;9.45;;
39772;SDS011;25451;51.960;6.250;2022-11-20T11:11:27;21.10;;;9.95;;
39772;SDS011;25451;51.960;6.250;2022-11-20T11:14:07;23.20;;;10.15;;
39772;SDS011;25451;51.960;6.250;2022-11-20T11:16:34;22.23;;;10.50;;
39772;SDS011;25451;51.960;6.250;2022-11-20T11:19:03;21.02;;;9.60;;
39772;SDS011;25451;51.960;6.250;2022-11-20T11:21:38;20.03;;;10.07;;
39772;SDS011;25451;51.960;6.250;2022-11-20T11:24:15;24.70;;;11.00;;
39772;SDS011;25451;51.960;6.250;2022-11-20T11:26:52;21.13;;;9.60;;
39772;SDS011;25451;51.960;6.250;2022-11-20T11:29:32;22.25;;;10.27;;
39772;SDS011;25451;51.960;6.250;2022-11-20T11:34:36;25.43;;;10.60;;
39772;SDS011;25451;51.960;6.250;2022-11-20T11:37:01;21.77;;;10.35;;
39772;SDS011;25451;51.960;6.250;2022-11-20T11:39:30;24.20;;;10.60;;
39772;SDS011;25451;51.960;6.250;2022-11-20T11:41:58;21.58;;;9.20;;
39772;SDS011;25451;51.960;6.250;2022-11-20T11:44:27;23.13;;;9.88;;
39772;SDS011;25451;51.960;6.250;2022-11-20T11:47:24;21.25;;;9.85;;
39772;SDS011;25451;51.960;6.250;2022-11-20T11:52:41;21.93;;;9.67;;
39772;SDS011;25451;51.960;6.250;2022-11-20T11:55:29;24.00;;;9.27;;
39772;SDS011;25451;51.960;6.250;2022-11-20T12:01:01;21.60;;;8.95;;
39772;SDS011;25451;51.960;6.250;2022-11-20T12:03:42;20.45;;;8.38;;
39772;SDS011;25451;51.960;6.250;2022-11-20T12:06:13;19.67;;;8.67;;
39772;SDS011;25451;51.960;6.250;2022-11-20T12:08:44;19.60;;;8.82;;
39772;SDS011;25451;51.960;6.250;2022-11-20T12:11:19;16.90;;;8.38;;
39772;SDS011;25451;51.960;6.250;2022-11-20T12:16:19;20.60;;;9.05;;
39772;SDS011;25451;51.960;6.250;2022-11-20T12:18:46;19.47;;;9.00;;
39772;SDS011;25451;51.960;6.250;2022-11-20T12:37:46;17.10;;;7.03;;
39772;SDS011;25451;51.960;6.250;2022-11-20T12:48:53;19.13;;;7.80;;
39772;SDS011;25451;51.960;6.250;2022-11-20T12:51:30;19.63;;;8.10;;
39772;SDS011;25451;51.960;6.250;2022-11-20T12:57:01;19.08;;;7.65;;
39772;SDS011;25451;51.960;6.250;2022-11-20T13:05:13;14.35;;;7.45;;
39772;SDS011;25451;51.960;6.250;2022-11-20T13:07:46;15.52;;;7.15;;
39772;SDS011;25451;51.960;6.250;2022-11-20T13:10:14;15.57;;;7.60;;
39772;SDS011;25451;51.960;6.250;2022-11-20T13:12:46;14.20;;;7.07;;
39772;SDS011;25451;51.960;6.250;2022-11-20T13:15:27;14.25;;;7.15;;
39772;SDS011;25451;51.960;6.250;2022-11-20T13:18:10;18.67;;;8.77;;
39772;SDS011;25451;51.960;6.250;2022-11-20T13:20:40;21.05;;;9.60;;
39772;SDS011;25451;51.960;6.250;2022-11-20T13:23:08;18.92;;;9.27;;
39772;SDS011;25451;51.960;6.250;2022-11-20T13:25:34;18.70;;;9.00;;
39772;SDS011;25451;51.960;6.250;2022-11-20T13:28:43;17.35;;;7.47;;
39772;SDS011;25451;51.960;6.250;2022-11-20T13:30:54;16.30;;;8.37;;
39772;SDS011;25451;51.960;6.250;2022-11-20T13:35:56;18.35;;;8.25;;
39772;SDS011;25451;51.960;6.250;2022-11-20T13:38:24;16.02;;;7.22;;
39772;SDS011;25451;51.960;6.250;2022-11-20T13:46:05;20.33;;;9.50;;
39772;SDS011;25451;51.960;6.250;2022-11-20T13:48:42;19.30;;;9.82;;
39772;SDS011;25451;51.960;6.250;2022-11-20T13:56:29;22.77;;;10.20;;
39772;SDS011;25451;51.960;6.250;2022-11-20T14:01:32;22.90;;;9.60;;
39772;SDS011;25451;51.960;6.250;2022-11-20T14:03:59;21.27;;;10.07;;
39772;SDS011;25451;51.960;6.250;2022-11-20T14:06:31;22.58;;;10.02;;
39772;SDS011;25451;51.960;6.250;2022-11-20T14:08:59;23.77;;;10.68;;
39772;SDS011;25451;51.960;6.250;2022-11-20T14:11:26;19.55;;;10.07;;
39772;SDS011;25451;51.960;6.250;2022-11-20T14:16:22;23.10;;;9.43;;
39772;SDS011;25451;51.960;6.250;2022-11-20T14:18:49;21.73;;;9.57;;
39772;SDS011;25451;51.960;6.250;2022-11-20T14:21:27;19.67;;;8.50;;
39772;SDS011;25451;51.960;6.250;2022-11-20T14:24:07;15.40;;;7.28;;
39772;SDS011;25451;51.960;6.250;2022-11-20T14:26:37;20.02;;;9.52;;
39772;SDS011;25451;51.960;6.250;2022-11-20T14:29:11;18.95;;;8.48;;
39772;SDS011;25451;51.960;6.250;2022-11-20T14:31:44;21.45;;;9.63;;
39772;SDS011;25451;51.960;6.250;2022-11-20T14:34:17;19.03;;;8.50;;
39772;SDS011;25451;51.960;6.250;2022-11-20T14:36:46;19.45;;;8.73;;
39772;SDS011;25451;51.960;6.250;2022-11-20T14:39:22;19.40;;;9.20;;
39772;SDS011;25451;51.960;6.250;2022-11-20T14:41:57;18.73;;;8.60;;
39772;SDS011;25451;51.960;6.250;2022-11-20T14:44:25;24.93;;;9.97;;
39772;SDS011;25451;51.960;6.250;2022-11-20T14:46:55;25.70;;;10.18;;
39772;SDS011;25451;51.960;6.250;2022-11-20T14:49:21;24.00;;;10.17;;
39772;SDS011;25451;51.960;6.250;2022-11-20T14:51:57;20.75;;;10.00;;
39772;SDS011;25451;51.960;6.250;2022-11-20T14:54:24;20.40;;;9.07;;
39772;SDS011;25451;51.960;6.250;2022-11-20T14:56:54;19.75;;;9.20;;
39772;SDS011;25451;51.960;6.250;2022-11-20T14:59:28;24.00;;;9.43;;
39772;SDS011;25451;51.960;6.250;2022-11-20T15:01:56;15.87;;;8.40;;
39772;SDS011;25451;51.960;6.250;2022-11-20T15:04:24;17.25;;;8.65;;
39772;SDS011;25451;51.960;6.250;2022-11-20T15:06:50;21.63;;;9.23;;
39772;SDS011;25451;51.960;6.250;2022-11-20T15:09:20;17.60;;;8.37;;
39772;SDS011;25451;51.960;6.250;2022-11-20T15:11:56;20.15;;;8.85;;
39772;SDS011;25451;51.960;6.250;2022-11-20T15:14:25;24.63;;;10.43;;
39772;SDS011;25451;51.960;6.250;2022-11-20T15:16:52;21.52;;;9.32;;
39772;SDS011;25451;51.960;6.250;2022-11-20T15:19:24;22.77;;;10.33;;
39772;SDS011;25451;51.960;6.250;2022-11-20T15:21:51;24.95;;;9.63;;
39772;SDS011;25451;51.960;6.250;2022-11-20T15:24:17;23.00;;;9.10;;
39772;SDS011;25451;51.960;6.250;2022-11-20T15:26:43;20.93;;;9.53;;
39772;SDS011;25451;51.960;6.250;2022-11-20T15:29:13;20.77;;;9.43;;
39772;SDS011;25451;51.960;6.250;2022-11-20T15:31:54;20.15;;;9.15;;
39772;SDS011;25451;51.960;6.250;2022-11-20T15:34:20;20.27;;;8.93;;
39772;SDS011;25451;51.960;6.250;2022-11-20T15:36:46;20.55;;;9.25;;
39772;SDS011;25451;51.960;6.250;2022-11-20T15:39:11;22.27;;;9.27;;
39772;SDS011;25451;51.960;6.250;2022-11-20T15:41:37;22.30;;;9.40;;
39772;SDS011;25451;51.960;6.250;2022-11-20T15:44:03;22.98;;;9.80;;
39772;SDS011;25451;51.960;6.250;2022-11-20T15:46:33;20.15;;;9.75;;
39772;SDS011;25451;51.960;6.250;2022-11-20T15:49:06;20.80;;;9.43;;
39772;SDS011;25451;51.960;6.250;2022-11-20T15:51:37;20.35;;;8.35;;
39772;SDS011;25451;51.960;6.250;2022-11-20T15:54:11;19.77;;;8.10;;
39772;SDS011;25451;51.960;6.250;2022-11-20T15:56:43;26.65;;;10.23;;
39772;SDS011;25451;51.960;6.250;2022-11-20T15:59:08;21.33;;;9.67;;
39772;SDS011;25451;51.960;6.250;2022-11-20T16:01:33;20.90;;;9.07;;
39772;SDS011;25451;51.960;6.250;2022-11-20T16:03:59;23.13;;;9.93;;
39772;SDS011;25451;51.960;6.250;2022-11-20T16:06:25;24.05;;;10.05;;
39772;SDS011;25451;51.960;6.250;2022-11-20T16:08:50;21.70;;;9.67;;
39772;SDS011;25451;51.960;6.250;2022-11-20T16:11:16;22.03;;;9.67;;
39772;SDS011;25451;51.960;6.250;2022-11-20T16:13:42;22.45;;;9.55;;
39772;SDS011;25451;51.960;6.250;2022-11-20T16:16:28;24.92;;;10.23;;
39772;SDS011;25451;51.960;6.250;2022-11-20T16:18:56;22.13;;;9.17;;
39772;SDS011;25451;51.960;6.250;2022-11-20T16:21:22;24.25;;;10.57;;
39772;SDS011;25451;51.960;6.250;2022-11-20T16:23:57;23.15;;;10.65;;
39772;SDS011;25451;51.960;6.250;2022-11-20T16:26:30;24.38;;;10.80;;
39772;SDS011;25451;51.960;6.250;2022-11-20T16:28:55;23.80;;;11.17;;
39772;SDS011;25451;51.960;6.250;2022-11-20T16:31:21;25.73;;;10.77;;
39772;SDS011;25451;51.960;6.250;2022-11-20T16:33:50;25.10;;;12.17;;